sensor_id;sensor_type;location;lat;lon;timestamp;P1;durP1;ratioP1;P2;durP2;ratioP2
8938;SDS011;4504;48.810;9.172;2023-07-08T00:00:10;110.17;;;3.43;;
8938;SDS011;4504;48.810;9.172;2023-07-08T00:02:39;111.83;;;3.80;;
8938;SDS011;4504;48.810;9.172;2023-07-08T00:05:07;109.40;;;4.10;;
8938;SDS011;4504;48.810;9.172;2023-07-08T00:07:37;113.97;;;4.30;;
8938;SDS011;4504;48.810;9.172;2023-07-08T00:10:10;119.67;;;4.10;;
8938;SDS011;4504;48.810;9.172;2023-07-08T00:12:39;112.57;;;3.70;;
8938;SDS011;4504;48.810;9.172;2023-07-08T00:15:07;113.77;;;4.00;;
8938;SDS011;4504;48.810;9.172;2023-07-08T00:17:34;110.03;;;3.90;;
8938;SDS011;4504;48.810;9.172;2023-07-08T00:20:07;111.30;;;3.33;;
8938;SDS011;4504;48.810;9.172;2023-07-08T00:22:40;113.03;;;3.63;;
8938;SDS011;4504;48.810;9.172;2023-07-08T00:25:08;112.33;;;3.70;;
8938;SDS011;4504;48.810;9.172;2023-07-08T00:27:35;112.77;;;4.43;;
8938;SDS011;4504;48.810;9.172;2023-07-08T00:30:10;113.27;;;4.50;;
8938;SDS011;4504;48.810;9.172;2023-07-08T00:32:43;112.87;;;4.50;;
8938;SDS011;4504;48.810;9.172;2023-07-08T00:35:10;123.13;;;4.40;;
8938;SDS011;4504;48.810;9.172;2023-07-08T00:37:37;114.63;;;4.00;;
8938;SDS011;4504;48.810;9.172;2023-07-08T00:40:13;113.27;;;4.30;;
8938;SDS011;4504;48.810;9.172;2023-07-08T00:42:42;113.33;;;3.97;;
8938;SDS011;4504;48.810;9.172;2023-07-08T00:45:15;113.87;;;4.07;;
8938;SDS011;4504;48.810;9.172;2023-07-08T00:47:46;113.80;;;4.40;;
8938;SDS011;4504;48.810;9.172;2023-07-08T00:50:15;112.80;;;4.00;;
8938;SDS011;4504;48.810;9.172;2023-07-08T00:52:43;112.60;;;3.57;;
8938;SDS011;4504;48.810;9.172;2023-07-08T00:55:13;111.00;;;3.63;;
8938;SDS011;4504;48.810;9.172;2023-07-08T00:57:41;112.10;;;3.97;;
8938;SDS011;4504;48.810;9.172;2023-07-08T01:00:11;113.60;;;4.23;;
8938;SDS011;4504;48.810;9.172;2023-07-08T01:02:42;111.87;;;3.63;;
8938;SDS011;4504;48.810;9.172;2023-07-08T01:05:13;112.43;;;4.23;;
8938;SDS011;4504;48.810;9.172;2023-07-08T01:07:44;112.50;;;3.57;;
8938;SDS011;4504;48.810;9.172;2023-07-08T01:10:18;114.13;;;4.03;;
8938;SDS011;4504;48.810;9.172;2023-07-08T01:12:49;113.40;;;4.07;;
8938;SDS011;4504;48.810;9.172;2023-07-08T01:15:19;117.27;;;4.03;;
8938;SDS011;4504;48.810;9.172;2023-07-08T01:17:50;114.87;;;5.00;;
8938;SDS011;4504;48.810;9.172;2023-07-08T01:20:18;112.90;;;3.83;;
8938;SDS011;4504;48.810;9.172;2023-07-08T01:22:47;114.47;;;4.37;;
8938;SDS011;4504;48.810;9.172;2023-07-08T01:25:14;115.73;;;4.10;;
8938;SDS011;4504;48.810;9.172;2023-07-08T01:27:42;113.30;;;3.93;;
8938;SDS011;4504;48.810;9.172;2023-07-08T01:30:12;113.87;;;4.10;;
8938;SDS011;4504;48.810;9.172;2023-07-08T01:32:42;117.23;;;3.87;;
8938;SDS011;4504;48.810;9.172;2023-07-08T01:35:12;112.87;;;3.90;;
8938;SDS011;4504;48.810;9.172;2023-07-08T01:37:40;113.97;;;4.50;;
8938;SDS011;4504;48.810;9.172;2023-07-08T01:40:16;114.07;;;3.90;;
8938;SDS011;4504;48.810;9.172;2023-07-08T01:42:54;114.10;;;3.57;;
8938;SDS011;4504;48.810;9.172;2023-07-08T01:45:22;114.27;;;4.03;;
8938;SDS011;4504;48.810;9.172;2023-07-08T01:47:52;114.20;;;4.17;;
8938;SDS011;4504;48.810;9.172;2023-07-08T01:50:23;114.30;;;4.00;;
8938;SDS011;4504;48.810;9.172;2023-07-08T01:52:51;115.70;;;4.77;;
8938;SDS011;4504;48.810;9.172;2023-07-08T01:55:22;116.90;;;4.40;;
8938;SDS011;4504;48.810;9.172;2023-07-08T01:57:50;113.87;;;4.30;;
8938;SDS011;4504;48.810;9.172;2023-07-08T02:00:19;111.47;;;4.00;;
8938;SDS011;4504;48.810;9.172;2023-07-08T02:02:47;113.40;;;3.87;;
8938;SDS011;4504;48.810;9.172;2023-07-08T02:05:14;113.00;;;3.87;;
8938;SDS011;4504;48.810;9.172;2023-07-08T02:07:41;112.43;;;4.30;;
8938;SDS011;4504;48.810;9.172;2023-07-08T02:10:08;114.70;;;4.10;;
8938;SDS011;4504;48.810;9.172;2023-07-08T02:12:37;116.40;;;4.70;;
8938;SDS011;4504;48.810;9.172;2023-07-08T02:15:04;114.40;;;4.13;;
8938;SDS011;4504;48.810;9.172;2023-07-08T02:17:32;113.60;;;4.20;;
8938;SDS011;4504;48.810;9.172;2023-07-08T02:20:00;113.90;;;4.07;;
8938;SDS011;4504;48.810;9.172;2023-07-08T02:22:29;114.47;;;4.23;;
8938;SDS011;4504;48.810;9.172;2023-07-08T02:24:56;114.33;;;4.60;;
8938;SDS011;4504;48.810;9.172;2023-07-08T02:27:23;113.83;;;4.13;;
8938;SDS011;4504;48.810;9.172;2023-07-08T02:29:51;115.07;;;4.57;;
8938;SDS011;4504;48.810;9.172;2023-07-08T02:32:18;115.20;;;4.57;;
8938;SDS011;4504;48.810;9.172;2023-07-08T02:34:45;115.17;;;4.73;;
8938;SDS011;4504;48.810;9.172;2023-07-08T02:37:12;117.13;;;5.13;;
8938;SDS011;4504;48.810;9.172;2023-07-08T02:39:39;114.37;;;4.63;;
8938;SDS011;4504;48.810;9.172;2023-07-08T02:42:07;114.07;;;4.33;;
8938;SDS011;4504;48.810;9.172;2023-07-08T02:44:35;117.97;;;5.10;;
8938;SDS011;4504;48.810;9.172;2023-07-08T02:47:03;115.97;;;4.60;;
8938;SDS011;4504;48.810;9.172;2023-07-08T02:49:31;116.27;;;4.87;;
8938;SDS011;4504;48.810;9.172;2023-07-08T02:51:57;116.97;;;4.57;;
8938;SDS011;4504;48.810;9.172;2023-07-08T02:54:24;116.60;;;5.23;;
8938;SDS011;4504;48.810;9.172;2023-07-08T02:56:51;117.00;;;4.97;;
8938;SDS011;4504;48.810;9.172;2023-07-08T02:59:18;114.40;;;4.47;;
8938;SDS011;4504;48.810;9.172;2023-07-08T03:01:45;115.70;;;4.70;;
8938;SDS011;4504;48.810;9.172;2023-07-08T03:04:14;115.80;;;4.33;;
8938;SDS011;4504;48.810;9.172;2023-07-08T03:06:41;114.50;;;4.73;;
8938;SDS011;4504;48.810;9.172;2023-07-08T03:09:10;113.67;;;4.07;;
8938;SDS011;4504;48.810;9.172;2023-07-08T03:11:38;119.70;;;4.63;;
8938;SDS011;4504;48.810;9.172;2023-07-08T03:14:05;113.90;;;4.47;;
8938;SDS011;4504;48.810;9.172;2023-07-08T03:16:33;116.23;;;4.37;;
8938;SDS011;4504;48.810;9.172;2023-07-08T03:19:00;115.97;;;5.23;;
8938;SDS011;4504;48.810;9.172;2023-07-08T03:21:29;116.13;;;4.70;;
8938;SDS011;4504;48.810;9.172;2023-07-08T03:23:56;112.87;;;4.43;;
8938;SDS011;4504;48.810;9.172;2023-07-08T03:26:24;114.90;;;4.53;;
8938;SDS011;4504;48.810;9.172;2023-07-08T03:28:54;114.87;;;4.20;;
8938;SDS011;4504;48.810;9.172;2023-07-08T03:31:20;115.90;;;4.37;;
8938;SDS011;4504;48.810;9.172;2023-07-08T03:33:49;117.57;;;5.40;;
8938;SDS011;4504;48.810;9.172;2023-07-08T03:36:17;115.50;;;5.13;;
8938;SDS011;4504;48.810;9.172;2023-07-08T03:38:51;115.00;;;4.73;;
8938;SDS011;4504;48.810;9.172;2023-07-08T03:41:20;119.40;;;4.70;;
8938;SDS011;4504;48.810;9.172;2023-07-08T03:43:48;114.40;;;4.67;;
8938;SDS011;4504;48.810;9.172;2023-07-08T03:46:16;114.00;;;4.50;;
8938;SDS011;4504;48.810;9.172;2023-07-08T03:48:44;114.37;;;4.53;;
8938;SDS011;4504;48.810;9.172;2023-07-08T03:51:14;116.70;;;4.80;;
8938;SDS011;4504;48.810;9.172;2023-07-08T03:53:48;114.13;;;4.13;;
8938;SDS011;4504;48.810;9.172;2023-07-08T03:56:18;115.50;;;4.60;;
8938;SDS011;4504;48.810;9.172;2023-07-08T03:58:45;114.27;;;4.13;;
8938;SDS011;4504;48.810;9.172;2023-07-08T04:01:13;116.27;;;4.60;;
8938;SDS011;4504;48.810;9.172;2023-07-08T04:03:42;115.90;;;5.17;;
8938;SDS011;4504;48.810;9.172;2023-07-08T04:06:11;114.50;;;4.23;;
8938;SDS011;4504;48.810;9.172;2023-07-08T04:08:38;115.17;;;4.47;;
8938;SDS011;4504;48.810;9.172;2023-07-08T04:11:05;117.60;;;4.57;;
8938;SDS011;4504;48.810;9.172;2023-07-08T04:13:34;114.30;;;4.70;;
8938;SDS011;4504;48.810;9.172;2023-07-08T04:16:01;114.97;;;4.50;;
8938;SDS011;4504;48.810;9.172;2023-07-08T04:18:30;116.10;;;4.40;;
8938;SDS011;4504;48.810;9.172;2023-07-08T04:20:57;116.70;;;4.57;;
8938;SDS011;4504;48.810;9.172;2023-07-08T04:23:24;117.10;;;5.50;;
8938;SDS011;4504;48.810;9.172;2023-07-08T04:25:52;117.70;;;5.17;;
8938;SDS011;4504;48.810;9.172;2023-07-08T04:28:21;114.40;;;4.70;;
8938;SDS011;4504;48.810;9.172;2023-07-08T04:30:50;115.73;;;5.23;;
8938;SDS011;4504;48.810;9.172;2023-07-08T04:33:17;116.67;;;4.97;;
8938;SDS011;4504;48.810;9.172;2023-07-08T04:35:44;117.13;;;5.17;;
8938;SDS011;4504;48.810;9.172;2023-07-08T04:38:14;115.77;;;5.70;;
8938;SDS011;4504;48.810;9.172;2023-07-08T04:40:43;113.20;;;4.43;;
8938;SDS011;4504;48.810;9.172;2023-07-08T04:43:10;121.37;;;4.63;;
8938;SDS011;4504;48.810;9.172;2023-07-08T04:45:38;114.27;;;4.07;;
8938;SDS011;4504;48.810;9.172;2023-07-08T04:48:08;118.60;;;4.20;;
8938;SDS011;4504;48.810;9.172;2023-07-08T04:50:39;114.87;;;5.20;;
8938;SDS011;4504;48.810;9.172;2023-07-08T04:53:07;112.73;;;4.03;;
8938;SDS011;4504;48.810;9.172;2023-07-08T04:55:34;113.77;;;4.50;;
8938;SDS011;4504;48.810;9.172;2023-07-08T04:58:02;121.90;;;4.37;;
8938;SDS011;4504;48.810;9.172;2023-07-08T05:00:29;114.43;;;4.50;;
8938;SDS011;4504;48.810;9.172;2023-07-08T05:02:56;113.73;;;4.30;;
8938;SDS011;4504;48.810;9.172;2023-07-08T05:05:25;114.07;;;4.60;;
8938;SDS011;4504;48.810;9.172;2023-07-08T05:07:52;114.50;;;4.13;;
8938;SDS011;4504;48.810;9.172;2023-07-08T05:10:19;114.57;;;4.63;;
8938;SDS011;4504;48.810;9.172;2023-07-08T05:12:47;115.93;;;4.50;;
8938;SDS011;4504;48.810;9.172;2023-07-08T05:15:15;115.90;;;3.97;;
8938;SDS011;4504;48.810;9.172;2023-07-08T05:17:42;112.13;;;4.50;;
8938;SDS011;4504;48.810;9.172;2023-07-08T05:20:10;113.33;;;4.30;;
8938;SDS011;4504;48.810;9.172;2023-07-08T05:22:40;113.27;;;4.00;;
8938;SDS011;4504;48.810;9.172;2023-07-08T05:25:08;113.80;;;4.17;;
8938;SDS011;4504;48.810;9.172;2023-07-08T05:27:35;115.77;;;5.20;;
8938;SDS011;4504;48.810;9.172;2023-07-08T05:30:03;115.80;;;4.60;;
8938;SDS011;4504;48.810;9.172;2023-07-08T05:32:32;115.17;;;5.30;;
8938;SDS011;4504;48.810;9.172;2023-07-08T05:34:59;115.60;;;4.60;;
8938;SDS011;4504;48.810;9.172;2023-07-08T05:37:26;114.50;;;4.40;;
8938;SDS011;4504;48.810;9.172;2023-07-08T05:39:55;120.00;;;4.40;;
8938;SDS011;4504;48.810;9.172;2023-07-08T05:42:25;115.47;;;4.47;;
8938;SDS011;4504;48.810;9.172;2023-07-08T05:44:52;114.10;;;4.33;;
8938;SDS011;4504;48.810;9.172;2023-07-08T05:47:20;111.70;;;3.50;;
8938;SDS011;4504;48.810;9.172;2023-07-08T05:49:47;113.80;;;4.23;;
8938;SDS011;4504;48.810;9.172;2023-07-08T05:52:14;113.07;;;4.03;;
8938;SDS011;4504;48.810;9.172;2023-07-08T05:54:41;111.77;;;4.30;;
8938;SDS011;4504;48.810;9.172;2023-07-08T05:57:10;112.80;;;4.33;;
8938;SDS011;4504;48.810;9.172;2023-07-08T05:59:38;112.60;;;4.60;;
8938;SDS011;4504;48.810;9.172;2023-07-08T06:02:05;111.73;;;4.00;;
8938;SDS011;4504;48.810;9.172;2023-07-08T06:04:33;111.80;;;3.50;;
8938;SDS011;4504;48.810;9.172;2023-07-08T06:07:00;115.70;;;4.63;;
8938;SDS011;4504;48.810;9.172;2023-07-08T06:09:26;111.60;;;4.20;;
8938;SDS011;4504;48.810;9.172;2023-07-08T06:11:53;110.13;;;3.80;;
8938;SDS011;4504;48.810;9.172;2023-07-08T06:14:22;110.83;;;3.73;;
8938;SDS011;4504;48.810;9.172;2023-07-08T06:16:49;112.97;;;4.33;;
8938;SDS011;4504;48.810;9.172;2023-07-08T06:19:16;111.10;;;4.00;;
8938;SDS011;4504;48.810;9.172;2023-07-08T06:21:43;110.30;;;3.87;;
8938;SDS011;4504;48.810;9.172;2023-07-08T06:24:10;112.23;;;4.43;;
8938;SDS011;4504;48.810;9.172;2023-07-08T06:26:37;109.50;;;3.60;;
8938;SDS011;4504;48.810;9.172;2023-07-08T06:29:04;113.40;;;4.67;;
8938;SDS011;4504;48.810;9.172;2023-07-08T06:31:33;109.77;;;3.87;;
8938;SDS011;4504;48.810;9.172;2023-07-08T06:34:00;111.37;;;4.07;;
8938;SDS011;4504;48.810;9.172;2023-07-08T06:36:27;109.93;;;3.87;;
8938;SDS011;4504;48.810;9.172;2023-07-08T06:38:54;111.33;;;3.60;;
8938;SDS011;4504;48.810;9.172;2023-07-08T06:41:21;111.20;;;3.33;;
8938;SDS011;4504;48.810;9.172;2023-07-08T06:43:48;111.43;;;4.27;;
8938;SDS011;4504;48.810;9.172;2023-07-08T06:46:20;109.93;;;3.13;;
8938;SDS011;4504;48.810;9.172;2023-07-08T06:48:49;109.97;;;3.17;;
8938;SDS011;4504;48.810;9.172;2023-07-08T06:51:16;111.17;;;3.93;;
8938;SDS011;4504;48.810;9.172;2023-07-08T06:53:43;110.43;;;3.47;;
8938;SDS011;4504;48.810;9.172;2023-07-08T06:56:10;107.07;;;2.70;;
8938;SDS011;4504;48.810;9.172;2023-07-08T06:58:37;107.30;;;3.10;;
8938;SDS011;4504;48.810;9.172;2023-07-08T07:01:04;108.90;;;3.10;;
8938;SDS011;4504;48.810;9.172;2023-07-08T07:03:31;108.83;;;3.10;;
8938;SDS011;4504;48.810;9.172;2023-07-08T07:05:59;108.70;;;3.27;;
8938;SDS011;4504;48.810;9.172;2023-07-08T07:08:26;110.90;;;3.20;;
8938;SDS011;4504;48.810;9.172;2023-07-08T07:10:53;108.03;;;3.13;;
8938;SDS011;4504;48.810;9.172;2023-07-08T07:13:20;109.10;;;3.00;;
8938;SDS011;4504;48.810;9.172;2023-07-08T07:15:47;108.20;;;3.07;;
8938;SDS011;4504;48.810;9.172;2023-07-08T07:18:15;108.07;;;2.90;;
8938;SDS011;4504;48.810;9.172;2023-07-08T07:20:46;107.70;;;2.83;;
8938;SDS011;4504;48.810;9.172;2023-07-08T07:23:16;108.37;;;2.77;;
8938;SDS011;4504;48.810;9.172;2023-07-08T07:25:44;107.57;;;2.80;;
8938;SDS011;4504;48.810;9.172;2023-07-08T07:28:12;108.10;;;2.80;;
8938;SDS011;4504;48.810;9.172;2023-07-08T07:30:42;112.20;;;3.40;;
8938;SDS011;4504;48.810;9.172;2023-07-08T07:33:09;108.67;;;2.53;;
8938;SDS011;4504;48.810;9.172;2023-07-08T07:35:36;107.97;;;2.67;;
8938;SDS011;4504;48.810;9.172;2023-07-08T07:38:07;105.90;;;2.70;;
8938;SDS011;4504;48.810;9.172;2023-07-08T07:40:36;107.53;;;2.73;;
8938;SDS011;4504;48.810;9.172;2023-07-08T07:43:03;107.67;;;2.60;;
8938;SDS011;4504;48.810;9.172;2023-07-08T07:45:30;108.67;;;3.10;;
8938;SDS011;4504;48.810;9.172;2023-07-08T07:47:56;107.60;;;2.70;;
8938;SDS011;4504;48.810;9.172;2023-07-08T07:50:23;108.20;;;2.80;;
8938;SDS011;4504;48.810;9.172;2023-07-08T07:52:50;110.40;;;2.77;;
8938;SDS011;4504;48.810;9.172;2023-07-08T07:55:17;109.07;;;3.10;;
8938;SDS011;4504;48.810;9.172;2023-07-08T07:57:46;109.37;;;3.23;;
8938;SDS011;4504;48.810;9.172;2023-07-08T08:00:13;109.03;;;2.60;;
8938;SDS011;4504;48.810;9.172;2023-07-08T08:02:43;108.07;;;3.47;;
8938;SDS011;4504;48.810;9.172;2023-07-08T08:05:10;107.70;;;2.97;;
8938;SDS011;4504;48.810;9.172;2023-07-08T08:07:37;109.30;;;3.00;;
8938;SDS011;4504;48.810;9.172;2023-07-08T08:10:06;108.17;;;2.40;;
8938;SDS011;4504;48.810;9.172;2023-07-08T08:12:33;111.20;;;3.03;;
8938;SDS011;4504;48.810;9.172;2023-07-08T08:15:02;108.10;;;2.70;;
8938;SDS011;4504;48.810;9.172;2023-07-08T08:17:29;106.40;;;2.67;;
8938;SDS011;4504;48.810;9.172;2023-07-08T08:19:56;107.00;;;2.83;;
8938;SDS011;4504;48.810;9.172;2023-07-08T08:22:23;107.47;;;2.57;;
8938;SDS011;4504;48.810;9.172;2023-07-08T08:24:50;107.30;;;2.97;;
8938;SDS011;4504;48.810;9.172;2023-07-08T08:27:17;108.03;;;3.37;;
8938;SDS011;4504;48.810;9.172;2023-07-08T08:29:44;107.73;;;3.10;;
8938;SDS011;4504;48.810;9.172;2023-07-08T08:32:13;108.07;;;2.87;;
8938;SDS011;4504;48.810;9.172;2023-07-08T08:34:40;108.17;;;3.20;;
8938;SDS011;4504;48.810;9.172;2023-07-08T08:37:07;110.40;;;2.57;;
8938;SDS011;4504;48.810;9.172;2023-07-08T08:39:34;106.57;;;2.30;;
8938;SDS011;4504;48.810;9.172;2023-07-08T08:42:01;108.70;;;2.87;;
8938;SDS011;4504;48.810;9.172;2023-07-08T08:44:31;105.40;;;2.03;;
8938;SDS011;4504;48.810;9.172;2023-07-08T08:47:01;107.57;;;3.00;;
8938;SDS011;4504;48.810;9.172;2023-07-08T08:49:37;106.60;;;2.30;;
8938;SDS011;4504;48.810;9.172;2023-07-08T08:52:10;106.90;;;2.73;;
8938;SDS011;4504;48.810;9.172;2023-07-08T08:54:37;105.67;;;2.20;;
8938;SDS011;4504;48.810;9.172;2023-07-08T08:57:06;104.80;;;2.20;;
8938;SDS011;4504;48.810;9.172;2023-07-08T08:59:44;104.67;;;1.93;;
8938;SDS011;4504;48.810;9.172;2023-07-08T09:02:23;106.30;;;2.20;;
8938;SDS011;4504;48.810;9.172;2023-07-08T09:04:57;104.90;;;2.00;;
8938;SDS011;4504;48.810;9.172;2023-07-08T09:07:30;105.07;;;2.00;;
8938;SDS011;4504;48.810;9.172;2023-07-08T09:10:07;109.77;;;2.60;;
8938;SDS011;4504;48.810;9.172;2023-07-08T09:12:42;104.47;;;2.17;;
8938;SDS011;4504;48.810;9.172;2023-07-08T09:15:11;105.47;;;2.00;;
8938;SDS011;4504;48.810;9.172;2023-07-08T09:17:40;105.93;;;2.10;;
8938;SDS011;4504;48.810;9.172;2023-07-08T09:20:13;105.07;;;2.10;;
8938;SDS011;4504;48.810;9.172;2023-07-08T09:22:48;104.80;;;2.00;;
8938;SDS011;4504;48.810;9.172;2023-07-08T09:25:24;103.60;;;1.70;;
8938;SDS011;4504;48.810;9.172;2023-07-08T09:27:54;104.83;;;2.00;;
8938;SDS011;4504;48.810;9.172;2023-07-08T09:30:22;106.50;;;2.17;;
8938;SDS011;4504;48.810;9.172;2023-07-08T09:32:50;104.77;;;1.97;;
8938;SDS011;4504;48.810;9.172;2023-07-08T09:35:20;103.90;;;2.10;;
8938;SDS011;4504;48.810;9.172;2023-07-08T09:37:49;103.87;;;1.80;;
8938;SDS011;4504;48.810;9.172;2023-07-08T09:40:17;105.27;;;2.10;;
8938;SDS011;4504;48.810;9.172;2023-07-08T09:42:48;103.90;;;1.83;;
8938;SDS011;4504;48.810;9.172;2023-07-08T09:45:17;111.00;;;2.43;;
8938;SDS011;4504;48.810;9.172;2023-07-08T09:47:46;104.10;;;1.97;;
8938;SDS011;4504;48.810;9.172;2023-07-08T09:50:19;104.40;;;1.90;;
8938;SDS011;4504;48.810;9.172;2023-07-08T09:52:48;105.17;;;2.20;;
8938;SDS011;4504;48.810;9.172;2023-07-08T09:55:16;105.00;;;1.90;;
8938;SDS011;4504;48.810;9.172;2023-07-08T09:57:44;104.90;;;2.53;;
8938;SDS011;4504;48.810;9.172;2023-07-08T10:00:14;110.47;;;3.30;;
8938;SDS011;4504;48.810;9.172;2023-07-08T10:02:43;105.30;;;2.57;;
8938;SDS011;4504;48.810;9.172;2023-07-08T10:05:14;103.83;;;2.23;;
8938;SDS011;4504;48.810;9.172;2023-07-08T10:07:46;106.10;;;1.87;;
8938;SDS011;4504;48.810;9.172;2023-07-08T10:10:15;104.80;;;2.20;;
8938;SDS011;4504;48.810;9.172;2023-07-08T10:12:52;105.87;;;2.20;;
8938;SDS011;4504;48.810;9.172;2023-07-08T10:15:23;105.00;;;2.13;;
8938;SDS011;4504;48.810;9.172;2023-07-08T10:17:54;104.73;;;2.47;;
8938;SDS011;4504;48.810;9.172;2023-07-08T10:20:22;104.97;;;2.10;;
8938;SDS011;4504;48.810;9.172;2023-07-08T10:22:56;102.83;;;2.07;;
8938;SDS011;4504;48.810;9.172;2023-07-08T10:25:32;103.63;;;2.20;;
8938;SDS011;4504;48.810;9.172;2023-07-08T10:28:15;105.70;;;2.10;;
8938;SDS011;4504;48.810;9.172;2023-07-08T10:30:53;104.37;;;2.10;;
8938;SDS011;4504;48.810;9.172;2023-07-08T10:33:36;103.57;;;2.00;;
8938;SDS011;4504;48.810;9.172;2023-07-08T10:36:17;104.90;;;2.30;;
8938;SDS011;4504;48.810;9.172;2023-07-08T10:38:54;104.30;;;2.10;;
8938;SDS011;4504;48.810;9.172;2023-07-08T10:41:36;104.60;;;2.50;;
8938;SDS011;4504;48.810;9.172;2023-07-08T10:44:12;104.67;;;2.53;;
8938;SDS011;4504;48.810;9.172;2023-07-08T10:46:47;104.50;;;2.40;;
8938;SDS011;4504;48.810;9.172;2023-07-08T10:49:28;114.60;;;2.40;;
8938;SDS011;4504;48.810;9.172;2023-07-08T10:52:15;101.80;;;2.63;;
8938;SDS011;4504;48.810;9.172;2023-07-08T10:55:01;103.77;;;2.40;;
8938;SDS011;4504;48.810;9.172;2023-07-08T10:57:46;102.60;;;2.57;;
8938;SDS011;4504;48.810;9.172;2023-07-08T11:00:31;101.67;;;2.33;;
8938;SDS011;4504;48.810;9.172;2023-07-08T11:03:16;100.57;;;2.03;;
8938;SDS011;4504;48.810;9.172;2023-07-08T11:06:06;101.17;;;2.30;;
8938;SDS011;4504;48.810;9.172;2023-07-08T11:08:38;100.00;;;2.00;;
8938;SDS011;4504;48.810;9.172;2023-07-08T11:11:14;100.37;;;2.13;;
8938;SDS011;4504;48.810;9.172;2023-07-08T11:13:53;100.97;;;2.23;;
8938;SDS011;4504;48.810;9.172;2023-07-08T11:16:26;98.30;;;1.93;;
8938;SDS011;4504;48.810;9.172;2023-07-08T11:18:59;100.20;;;2.40;;
8938;SDS011;4504;48.810;9.172;2023-07-08T11:21:31;97.40;;;1.70;;
8938;SDS011;4504;48.810;9.172;2023-07-08T11:24:04;98.33;;;1.77;;
8938;SDS011;4504;48.810;9.172;2023-07-08T11:26:50;98.37;;;1.80;;
8938;SDS011;4504;48.810;9.172;2023-07-08T11:29:21;98.50;;;2.00;;
8938;SDS011;4504;48.810;9.172;2023-07-08T11:31:51;100.63;;;1.97;;
8938;SDS011;4504;48.810;9.172;2023-07-08T11:34:20;101.70;;;2.20;;
8938;SDS011;4504;48.810;9.172;2023-07-08T11:36:48;100.27;;;2.20;;
8938;SDS011;4504;48.810;9.172;2023-07-08T11:39:26;102.50;;;2.60;;
8938;SDS011;4504;48.810;9.172;2023-07-08T11:42:13;99.87;;;1.90;;
8938;SDS011;4504;48.810;9.172;2023-07-08T11:44:44;102.67;;;2.23;;
8938;SDS011;4504;48.810;9.172;2023-07-08T11:47:18;100.07;;;2.33;;
8938;SDS011;4504;48.810;9.172;2023-07-08T11:49:50;99.47;;;2.20;;
8938;SDS011;4504;48.810;9.172;2023-07-08T11:52:20;99.90;;;1.87;;
8938;SDS011;4504;48.810;9.172;2023-07-08T11:54:54;99.93;;;2.10;;
8938;SDS011;4504;48.810;9.172;2023-07-08T11:57:29;99.37;;;1.90;;
8938;SDS011;4504;48.810;9.172;2023-07-08T12:00:14;98.23;;;2.00;;
8938;SDS011;4504;48.810;9.172;2023-07-08T12:02:50;97.97;;;1.80;;
8938;SDS011;4504;48.810;9.172;2023-07-08T12:05:28;98.10;;;2.10;;
8938;SDS011;4504;48.810;9.172;2023-07-08T12:07:58;98.80;;;2.17;;
8938;SDS011;4504;48.810;9.172;2023-07-08T12:10:27;97.13;;;1.57;;
8938;SDS011;4504;48.810;9.172;2023-07-08T12:12:59;97.57;;;1.90;;
8938;SDS011;4504;48.810;9.172;2023-07-08T12:15:27;95.27;;;1.63;;
8938;SDS011;4504;48.810;9.172;2023-07-08T12:17:56;96.03;;;1.50;;
8938;SDS011;4504;48.810;9.172;2023-07-08T12:20:27;95.80;;;1.63;;
8938;SDS011;4504;48.810;9.172;2023-07-08T12:22:57;94.90;;;1.70;;
8938;SDS011;4504;48.810;9.172;2023-07-08T12:25:26;96.17;;;1.73;;
8938;SDS011;4504;48.810;9.172;2023-07-08T12:27:54;93.43;;;1.67;;
8938;SDS011;4504;48.810;9.172;2023-07-08T12:30:23;94.70;;;1.50;;
8938;SDS011;4504;48.810;9.172;2023-07-08T12:32:53;94.40;;;1.87;;
8938;SDS011;4504;48.810;9.172;2023-07-08T12:35:25;93.47;;;1.77;;
8938;SDS011;4504;48.810;9.172;2023-07-08T12:37:54;92.27;;;1.57;;
8938;SDS011;4504;48.810;9.172;2023-07-08T12:40:25;93.57;;;2.10;;
8938;SDS011;4504;48.810;9.172;2023-07-08T12:42:52;92.97;;;1.50;;
8938;SDS011;4504;48.810;9.172;2023-07-08T12:45:20;91.97;;;1.60;;
8938;SDS011;4504;48.810;9.172;2023-07-08T12:47:51;93.47;;;1.80;;
8938;SDS011;4504;48.810;9.172;2023-07-08T12:50:18;92.00;;;1.30;;
8938;SDS011;4504;48.810;9.172;2023-07-08T12:52:46;92.37;;;1.70;;
8938;SDS011;4504;48.810;9.172;2023-07-08T12:55:14;93.47;;;1.77;;
8938;SDS011;4504;48.810;9.172;2023-07-08T12:57:42;91.77;;;1.90;;
8938;SDS011;4504;48.810;9.172;2023-07-08T13:00:12;93.30;;;2.10;;
8938;SDS011;4504;48.810;9.172;2023-07-08T13:02:48;92.13;;;1.90;;
8938;SDS011;4504;48.810;9.172;2023-07-08T13:05:23;100.33;;;2.63;;
8938;SDS011;4504;48.810;9.172;2023-07-08T13:07:51;91.80;;;1.67;;
8938;SDS011;4504;48.810;9.172;2023-07-08T13:10:26;92.13;;;1.57;;
8938;SDS011;4504;48.810;9.172;2023-07-08T13:12:55;91.27;;;1.50;;
8938;SDS011;4504;48.810;9.172;2023-07-08T13:15:26;92.80;;;1.73;;
8938;SDS011;4504;48.810;9.172;2023-07-08T13:17:59;91.70;;;1.90;;
8938;SDS011;4504;48.810;9.172;2023-07-08T13:20:27;94.00;;;1.60;;
8938;SDS011;4504;48.810;9.172;2023-07-08T13:22:56;90.80;;;1.67;;
8938;SDS011;4504;48.810;9.172;2023-07-08T13:25:26;90.53;;;1.83;;
8938;SDS011;4504;48.810;9.172;2023-07-08T13:27:56;89.63;;;1.43;;
8938;SDS011;4504;48.810;9.172;2023-07-08T13:30:25;90.07;;;1.57;;
8938;SDS011;4504;48.810;9.172;2023-07-08T13:32:54;90.90;;;1.40;;
8938;SDS011;4504;48.810;9.172;2023-07-08T13:35:26;91.70;;;1.60;;
8938;SDS011;4504;48.810;9.172;2023-07-08T13:38:00;91.70;;;1.83;;
8938;SDS011;4504;48.810;9.172;2023-07-08T13:40:28;91.27;;;2.00;;
8938;SDS011;4504;48.810;9.172;2023-07-08T13:42:56;89.27;;;1.70;;
8938;SDS011;4504;48.810;9.172;2023-07-08T13:45:24;90.60;;;1.70;;
8938;SDS011;4504;48.810;9.172;2023-07-08T13:48:00;92.90;;;2.57;;
8938;SDS011;4504;48.810;9.172;2023-07-08T13:50:38;91.40;;;1.60;;
8938;SDS011;4504;48.810;9.172;2023-07-08T13:53:17;89.90;;;1.50;;
8938;SDS011;4504;48.810;9.172;2023-07-08T13:55:47;90.37;;;1.73;;
8938;SDS011;4504;48.810;9.172;2023-07-08T13:58:15;90.20;;;1.20;;
8938;SDS011;4504;48.810;9.172;2023-07-08T14:00:44;92.00;;;1.60;;
8938;SDS011;4504;48.810;9.172;2023-07-08T14:03:11;91.97;;;1.30;;
8938;SDS011;4504;48.810;9.172;2023-07-08T14:05:44;93.07;;;1.67;;
8938;SDS011;4504;48.810;9.172;2023-07-08T14:08:12;92.07;;;1.30;;
8938;SDS011;4504;48.810;9.172;2023-07-08T14:10:40;92.23;;;1.50;;
8938;SDS011;4504;48.810;9.172;2023-07-08T14:13:08;92.70;;;1.87;;
8938;SDS011;4504;48.810;9.172;2023-07-08T14:15:37;93.17;;;1.77;;
8938;SDS011;4504;48.810;9.172;2023-07-08T14:18:04;91.77;;;1.30;;
8938;SDS011;4504;48.810;9.172;2023-07-08T14:20:32;91.50;;;1.53;;
8938;SDS011;4504;48.810;9.172;2023-07-08T14:23:00;92.47;;;1.73;;
8938;SDS011;4504;48.810;9.172;2023-07-08T14:25:27;92.60;;;1.50;;
8938;SDS011;4504;48.810;9.172;2023-07-08T14:27:54;96.20;;;1.60;;
8938;SDS011;4504;48.810;9.172;2023-07-08T14:30:21;96.30;;;1.70;;
8938;SDS011;4504;48.810;9.172;2023-07-08T14:32:48;93.17;;;1.50;;
8938;SDS011;4504;48.810;9.172;2023-07-08T14:35:17;95.70;;;1.70;;
8938;SDS011;4504;48.810;9.172;2023-07-08T14:37:46;95.10;;;1.67;;
8938;SDS011;4504;48.810;9.172;2023-07-08T14:40:25;94.77;;;1.40;;
8938;SDS011;4504;48.810;9.172;2023-07-08T14:42:56;96.27;;;1.90;;
8938;SDS011;4504;48.810;9.172;2023-07-08T14:45:26;97.80;;;2.10;;
8938;SDS011;4504;48.810;9.172;2023-07-08T14:47:55;96.57;;;1.73;;
8938;SDS011;4504;48.810;9.172;2023-07-08T14:50:22;96.60;;;1.60;;
8938;SDS011;4504;48.810;9.172;2023-07-08T14:52:51;99.63;;;1.70;;
8938;SDS011;4504;48.810;9.172;2023-07-08T14:55:18;98.33;;;1.90;;
8938;SDS011;4504;48.810;9.172;2023-07-08T14:57:47;97.70;;;1.63;;
8938;SDS011;4504;48.810;9.172;2023-07-08T15:00:15;98.40;;;1.83;;
8938;SDS011;4504;48.810;9.172;2023-07-08T15:02:44;99.80;;;2.07;;
8938;SDS011;4504;48.810;9.172;2023-07-08T15:05:13;97.60;;;1.90;;